sensor_id;sensor_type;location;lat;lon;timestamp;temperature;humidity
19654;DHT22;9975;48.046;7.804;2022-11-20T01:57:25;6.40;99.90
19654;DHT22;9975;48.046;7.804;2022-11-20T01:59:57;6.40;99.90
19654;DHT22;9975;48.046;7.804;2022-11-20T02:02:25;6.50;99.90
19654;DHT22;9975;48.046;7.804;2022-11-20T02:04:54;6.50;99.90
19654;DHT22;9975;48.046;7.804;2022-11-20T02:07:23;6.40;99.90
19654;DHT22;9975;48.046;7.804;2022-11-20T02:09:50;6.50;99.90
19654;DHT22;9975;48.046;7.804;2022-11-20T02:12:16;6.50;99.90
19654;DHT22;9975;48.046;7.804;2022-11-20T02:15:00;6.50;99.90
19654;DHT22;9975;48.046;7.804;2022-11-20T02:17:26;6.50;99.90
19654;DHT22;9975;48.046;7.804;2022-11-20T02:19:51;6.50;99.90
19654;DHT22;9975;48.046;7.804;2022-11-20T02:22:23;6.50;99.90
19654;DHT22;9975;48.046;7.804;2022-11-20T02:24:51;6.50;99.90
19654;DHT22;9975;48.046;7.804;2022-11-20T02:27:17;6.50;99.90
19654;DHT22;9975;48.046;7.804;2022-11-20T02:29:58;6.40;99.90
19654;DHT22;9975;48.046;7.804;2022-11-20T02:32:28;6.50;99.90
19654;DHT22;9975;48.046;7.804;2022-11-20T02:34:54;6.50;99.90
19654;DHT22;9975;48.046;7.804;2022-11-20T02:37:20;6.50;99.90
19654;DHT22;9975;48.046;7.804;2022-11-20T02:39:48;6.50;99.90
19654;DHT22;9975;48.046;7.804;2022-11-20T02:42:14;6.50;99.90
19654;DHT22;9975;48.046;7.804;2022-11-20T02:44:40;6.50;99.90
19654;DHT22;9975;48.046;7.804;2022-11-20T02:47:05;6.40;99.90
19654;DHT22;9975;48.046;7.804;2022-11-20T02:49:31;6.40;99.90
19654;DHT22;9975;48.046;7.804;2022-11-20T02:51:57;6.50;99.90
19654;DHT22;9975;48.046;7.804;2022-11-20T02:54:23;6.40;99.90
19654;DHT22;9975;48.046;7.804;2022-11-20T02:56:49;6.60;99.90
19654;DHT22;9975;48.046;7.804;2022-11-20T02:59:14;6.50;99.90
19654;DHT22;9975;48.046;7.804;2022-11-20T03:01:40;6.40;99.90
19654;DHT22;9975;48.046;7.804;2022-11-20T03:04:06;6.40;99.90
19654;DHT22;9975;48.046;7.804;2022-11-20T03:06:31;6.40;99.90
19654;DHT22;9975;48.046;7.804;2022-11-20T03:08:57;6.50;99.90
19654;DHT22;9975;48.046;7.804;2022-11-20T03:11:23;6.40;99.90
19654;DHT22;9975;48.046;7.804;2022-11-20T03:16:18;6.40;99.90
19654;DHT22;9975;48.046;7.804;2022-11-20T03:18:44;6.40;99.90
19654;DHT22;9975;48.046;7.804;2022-11-20T03:21:11;6.40;99.90
19654;DHT22;9975;48.046;7.804;2022-11-20T03:23:38;6.40;99.90
19654;DHT22;9975;48.046;7.804;2022-11-20T03:26:16;6.40;99.90
19654;DHT22;9975;48.046;7.804;2022-11-20T03:28:46;6.40;99.90
19654;DHT22;9975;48.046;7.804;2022-11-20T03:31:14;6.40;99.90
19654;DHT22;9975;48.046;7.804;2022-11-20T03:33:41;6.40;99.90
19654;DHT22;9975;48.046;7.804;2022-11-20T03:36:09;6.40;99.90
19654;DHT22;9975;48.046;7.804;2022-11-20T03:38:36;6.50;99.90
19654;DHT22;9975;48.046;7.804;2022-11-20T03:41:04;6.50;99.90
19654;DHT22;9975;48.046;7.804;2022-11-20T03:43:30;6.50;99.90
19654;DHT22;9975;48.046;7.804;2022-11-20T03:45:56;6.50;99.90
19654;DHT22;9975;48.046;7.804;2022-11-20T03:48:22;6.50;99.90
19654;DHT22;9975;48.046;7.804;2022-11-20T03:50:47;6.50;99.90
19654;DHT22;9975;48.046;7.804;2022-11-20T03:53:14;6.50;99.90
19654;DHT22;9975;48.046;7.804;2022-11-20T03:55:40;6.40;99.90
19654;DHT22;9975;48.046;7.804;2022-11-20T03:58:05;6.50;99.90
19654;DHT22;9975;48.046;7.804;2022-11-20T04:00:31;6.50;99.90
19654;DHT22;9975;48.046;7.804;2022-11-20T04:03:01;6.50;99.90
19654;DHT22;9975;48.046;7.804;2022-11-20T04:05:27;6.60;99.90
19654;DHT22;9975;48.046;7.804;2022-11-20T04:07:53;6.50;99.90
19654;DHT22;9975;48.046;7.804;2022-11-20T04:10:19;6.50;99.90
19654;DHT22;9975;48.046;7.804;2022-11-20T04:12:44;6.50;99.90
19654;DHT22;9975;48.046;7.804;2022-11-20T04:15:10;6.50;99.90
19654;DHT22;9975;48.046;7.804;2022-11-20T04:17:36;6.50;99.90
19654;DHT22;9975;48.046;7.804;2022-11-20T04:20:02;6.50;99.90
19654;DHT22;9975;48.046;7.804;2022-11-20T04:22:28;6.50;99.90
19654;DHT22;9975;48.046;7.804;2022-11-20T04:24:53;6.50;99.90
19654;DHT22;9975;48.046;7.804;2022-11-20T04:27:20;6.50;99.90
19654;DHT22;9975;48.046;7.804;2022-11-20T04:29:46;6.50;99.90
19654;DHT22;9975;48.046;7.804;2022-11-20T04:32:11;6.50;99.90
19654;DHT22;9975;48.046;7.804;2022-11-20T04:34:37;6.50;99.90
19654;DHT22;9975;48.046;7.804;2022-11-20T04:37:03;6.50;99.90
19654;DHT22;9975;48.046;7.804;2022-11-20T04:39:28;6.50;99.90
19654;DHT22;9975;48.046;7.804;2022-11-20T04:41:54;6.50;99.90
19654;DHT22;9975;48.046;7.804;2022-11-20T04:44:38;6.50;99.90
19654;DHT22;9975;48.046;7.804;2022-11-20T04:47:04;6.50;99.90
19654;DHT22;9975;48.046;7.804;2022-11-20T04:49:30;6.50;99.90
19654;DHT22;9975;48.046;7.804;2022-11-20T04:51:57;6.50;99.90
19654;DHT22;9975;48.046;7.804;2022-11-20T04:54:23;6.50;99.90
19654;DHT22;9975;48.046;7.804;2022-11-20T04:56:49;6.40;99.90
19654;DHT22;9975;48.046;7.804;2022-11-20T04:59:15;6.40;99.90
19654;DHT22;9975;48.046;7.804;2022-11-20T05:01:41;6.40;99.90
19654;DHT22;9975;48.046;7.804;2022-11-20T05:04:07;6.50;99.90
19654;DHT22;9975;48.046;7.804;2022-11-20T05:06:33;6.40;99.90
19654;DHT22;9975;48.046;7.804;2022-11-20T05:08:58;6.50;99.90
19654;DHT22;9975;48.046;7.804;2022-11-20T05:11:24;6.40;99.90
19654;DHT22;9975;48.046;7.804;2022-11-20T05:13:51;6.40;99.90
19654;DHT22;9975;48.046;7.804;2022-11-20T05:16:24;6.40;99.90
19654;DHT22;9975;48.046;7.804;2022-11-20T05:18:54;6.50;99.90
19654;DHT22;9975;48.046;7.804;2022-11-20T05:21:20;6.50;99.90
19654;DHT22;9975;48.046;7.804;2022-11-20T05:23:46;6.50;99.90
19654;DHT22;9975;48.046;7.804;2022-11-20T05:26:15;6.50;99.90
19654;DHT22;9975;48.046;7.804;2022-11-20T05:28:41;6.50;99.90
19654;DHT22;9975;48.046;7.804;2022-11-20T05:31:16;6.50;99.90
19654;DHT22;9975;48.046;7.804;2022-11-20T05:33:43;6.50;99.90
19654;DHT22;9975;48.046;7.804;2022-11-20T05:36:10;6.50;99.90
19654;DHT22;9975;48.046;7.804;2022-11-20T05:38:36;6.50;99.90
19654;DHT22;9975;48.046;7.804;2022-11-20T05:43:36;6.50;99.90
19654;DHT22;9975;48.046;7.804;2022-11-20T05:46:03;6.50;99.90
19654;DHT22;9975;48.046;7.804;2022-11-20T05:48:29;6.50;99.90
19654;DHT22;9975;48.046;7.804;2022-11-20T05:50:57;6.50;99.90
19654;DHT22;9975;48.046;7.804;2022-11-20T05:53:24;6.50;99.90
19654;DHT22;9975;48.046;7.804;2022-11-20T05:56:05;6.50;99.90
19654;DHT22;9975;48.046;7.804;2022-11-20T05:58:32;6.50;99.90
19654;DHT22;9975;48.046;7.804;2022-11-20T06:01:10;6.50;99.90
19654;DHT22;9975;48.046;7.804;2022-11-20T06:03:36;6.50;99.90
19654;DHT22;9975;48.046;7.804;2022-11-20T06:06:03;6.60;99.90
19654;DHT22;9975;48.046;7.804;2022-11-20T06:08:29;6.50;99.90
19654;DHT22;9975;48.046;7.804;2022-11-20T06:10:55;6.50;99.90
19654;DHT22;9975;48.046;7.804;2022-11-20T06:13:20;6.60;99.90
19654;DHT22;9975;48.046;7.804;2022-11-20T06:15:52;6.60;99.90
19654;DHT22;9975;48.046;7.804;2022-11-20T06:18:19;6.60;99.90
19654;DHT22;9975;48.046;7.804;2022-11-20T06:20:45;6.50;99.90
19654;DHT22;9975;48.046;7.804;2022-11-20T06:23:11;6.50;99.90
19654;DHT22;9975;48.046;7.804;2022-11-20T06:25:41;6.60;99.90
19654;DHT22;9975;48.046;7.804;2022-11-20T06:28:11;6.50;99.90
19654;DHT22;9975;48.046;7.804;2022-11-20T06:30:44;6.60;99.90
19654;DHT22;9975;48.046;7.804;2022-11-20T06:33:11;6.60;99.90
19654;DHT22;9975;48.046;7.804;2022-11-20T06:35:36;6.50;99.90
19654;DHT22;9975;48.046;7.804;2022-11-20T06:38:04;6.60;99.90
19654;DHT22;9975;48.046;7.804;2022-11-20T06:40:30;6.50;99.90
19654;DHT22;9975;48.046;7.804;2022-11-20T06:42:55;6.50;99.90
19654;DHT22;9975;48.046;7.804;2022-11-20T06:45:21;6.50;99.90
19654;DHT22;9975;48.046;7.804;2022-11-20T06:47:57;6.40;99.90
19654;DHT22;9975;48.046;7.804;2022-11-20T06:50:23;6.40;99.90
19654;DHT22;9975;48.046;7.804;2022-11-20T06:52:49;6.50;99.90
19654;DHT22;9975;48.046;7.804;2022-11-20T06:55:15;6.40;99.90
19654;DHT22;9975;48.046;7.804;2022-11-20T06:57:40;6.40;99.90
19654;DHT22;9975;48.046;7.804;2022-11-20T07:00:06;6.50;99.90
19654;DHT22;9975;48.046;7.804;2022-11-20T07:02:32;6.50;99.90
19654;DHT22;9975;48.046;7.804;2022-11-20T07:04:58;6.50;99.90
19654;DHT22;9975;48.046;7.804;2022-11-20T07:07:23;6.50;99.90
19654;DHT22;9975;48.046;7.804;2022-11-20T07:09:49;6.50;99.90
19654;DHT22;9975;48.046;7.804;2022-11-20T07:12:15;6.50;99.90
19654;DHT22;9975;48.046;7.804;2022-11-20T07:14:40;6.50;99.90
19654;DHT22;9975;48.046;7.804;2022-11-20T07:17:06;6.70;99.90
19654;DHT22;9975;48.046;7.804;2022-11-20T07:19:31;6.60;99.90
19654;DHT22;9975;48.046;7.804;2022-11-20T07:21:57;6.60;99.90
19654;DHT22;9975;48.046;7.804;2022-11-20T07:24:22;6.60;99.90
19654;DHT22;9975;48.046;7.804;2022-11-20T07:26:48;6.60;99.90
19654;DHT22;9975;48.046;7.804;2022-11-20T07:29:16;6.60;99.90
19654;DHT22;9975;48.046;7.804;2022-11-20T07:31:42;6.60;99.90
19654;DHT22;9975;48.046;7.804;2022-11-20T07:34:08;6.60;99.90
19654;DHT22;9975;48.046;7.804;2022-11-20T07:36:34;6.60;99.90
19654;DHT22;9975;48.046;7.804;2022-11-20T07:39:00;6.60;99.90
19654;DHT22;9975;48.046;7.804;2022-11-20T07:41:26;6.60;99.90
19654;DHT22;9975;48.046;7.804;2022-11-20T07:43:52;6.60;99.90
19654;DHT22;9975;48.046;7.804;2022-11-20T07:46:18;6.60;99.90
19654;DHT22;9975;48.046;7.804;2022-11-20T07:48:44;6.60;99.90
19654;DHT22;9975;48.046;7.804;2022-11-20T07:51:09;6.60;99.90
19654;DHT22;9975;48.046;7.804;2022-11-20T07:53:35;6.60;99.90
19654;DHT22;9975;48.046;7.804;2022-11-20T07:56:02;6.60;99.90
19654;DHT22;9975;48.046;7.804;2022-11-20T07:58:31;6.50;99.90
19654;DHT22;9975;48.046;7.804;2022-11-20T08:01:06;6.50;99.90
19654;DHT22;9975;48.046;7.804;2022-11-20T08:03:31;6.50;99.90
19654;DHT22;9975;48.046;7.804;2022-11-20T08:06:01;6.50;99.90
19654;DHT22;9975;48.046;7.804;2022-11-20T08:08:27;6.50;99.90
19654;DHT22;9975;48.046;7.804;2022-11-20T08:10:54;6.40;99.90
19654;DHT22;9975;48.046;7.804;2022-11-20T08:13:39;6.40;99.90
19654;DHT22;9975;48.046;7.804;2022-11-20T08:16:23;6.50;99.90
19654;DHT22;9975;48.046;7.804;2022-11-20T08:18:49;6.50;99.90
19654;DHT22;9975;48.046;7.804;2022-11-20T08:21:15;6.50;99.90
19654;DHT22;9975;48.046;7.804;2022-11-20T08:23:40;6.50;99.90
19654;DHT22;9975;48.046;7.804;2022-11-20T08:26:06;6.50;99.90
19654;DHT22;9975;48.046;7.804;2022-11-20T08:28:32;6.50;99.90
19654;DHT22;9975;48.046;7.804;2022-11-20T08:30:59;6.60;99.90
19654;DHT22;9975;48.046;7.804;2022-11-20T08:33:25;6.60;99.90
19654;DHT22;9975;48.046;7.804;2022-11-20T08:35:50;6.60;99.90
19654;DHT22;9975;48.046;7.804;2022-11-20T08:38:16;6.60;99.90
19654;DHT22;9975;48.046;7.804;2022-11-20T08:40:41;6.70;99.90
19654;DHT22;9975;48.046;7.804;2022-11-20T08:43:27;6.70;99.90
19654;DHT22;9975;48.046;7.804;2022-11-20T08:45:53;6.70;99.90
19654;DHT22;9975;48.046;7.804;2022-11-20T08:48:18;6.70;99.90
19654;DHT22;9975;48.046;7.804;2022-11-20T08:50:44;6.80;99.90
19654;DHT22;9975;48.046;7.804;2022-11-20T08:53:09;6.80;99.90
19654;DHT22;9975;48.046;7.804;2022-11-20T08:55:35;6.80;99.90
19654;DHT22;9975;48.046;7.804;2022-11-20T08:58:06;6.80;99.90
19654;DHT22;9975;48.046;7.804;2022-11-20T09:00:32;6.80;99.90
19654;DHT22;9975;48.046;7.804;2022-11-20T09:02:58;6.90;99.90
19654;DHT22;9975;48.046;7.804;2022-11-20T09:05:26;6.80;99.90
19654;DHT22;9975;48.046;7.804;2022-11-20T09:07:52;6.80;99.90
19654;DHT22;9975;48.046;7.804;2022-11-20T09:10:17;6.90;99.90
19654;DHT22;9975;48.046;7.804;2022-11-20T09:12:43;6.90;99.90
19654;DHT22;9975;48.046;7.804;2022-11-20T09:15:09;6.90;99.90
19654;DHT22;9975;48.046;7.804;2022-11-20T09:17:34;6.90;99.90
19654;DHT22;9975;48.046;7.804;2022-11-20T09:20:00;6.90;99.90
19654;DHT22;9975;48.046;7.804;2022-11-20T09:22:26;6.90;99.90
19654;DHT22;9975;48.046;7.804;2022-11-20T09:24:51;6.90;99.90
19654;DHT22;9975;48.046;7.804;2022-11-20T09:27:17;6.90;99.90
19654;DHT22;9975;48.046;7.804;2022-11-20T09:29:48;6.90;99.90
19654;DHT22;9975;48.046;7.804;2022-11-20T09:32:14;6.90;99.90
19654;DHT22;9975;48.046;7.804;2022-11-20T09:34:40;7.00;99.90
19654;DHT22;9975;48.046;7.804;2022-11-20T09:37:05;7.00;99.90
19654;DHT22;9975;48.046;7.804;2022-11-20T09:39:31;7.00;99.90
19654;DHT22;9975;48.046;7.804;2022-11-20T09:53:04;7.20;99.90
19654;DHT22;9975;48.046;7.804;2022-11-20T09:55:36;7.30;99.90
19654;DHT22;9975;48.046;7.804;2022-11-20T09:58:07;7.30;99.90
19654;DHT22;9975;48.046;7.804;2022-11-20T10:00:35;7.30;99.90
19654;DHT22;9975;48.046;7.804;2022-11-20T10:03:21;7.30;99.90
19654;DHT22;9975;48.046;7.804;2022-11-20T10:05:52;7.40;99.90
19654;DHT22;9975;48.046;7.804;2022-11-20T10:08:28;7.40;99.90
19654;DHT22;9975;48.046;7.804;2022-11-20T10:11:14;7.40;99.90
19654;DHT22;9975;48.046;7.804;2022-11-20T10:14:01;7.50;99.90
19654;DHT22;9975;48.046;7.804;2022-11-20T10:24:54;7.50;99.90
19654;DHT22;9975;48.046;7.804;2022-11-20T10:30:02;7.60;99.90
19654;DHT22;9975;48.046;7.804;2022-11-20T10:32:35;7.60;99.90
19654;DHT22;9975;48.046;7.804;2022-11-20T10:37:35;7.60;99.90
19654;DHT22;9975;48.046;7.804;2022-11-20T10:42:42;7.70;99.90
19654;DHT22;9975;48.046;7.804;2022-11-20T10:45:27;7.80;99.90
19654;DHT22;9975;48.046;7.804;2022-11-20T10:48:16;7.90;99.90
19654;DHT22;9975;48.046;7.804;2022-11-20T10:51:03;7.90;99.90
19654;DHT22;9975;48.046;7.804;2022-11-20T11:01:51;8.10;99.90
19654;DHT22;9975;48.046;7.804;2022-11-20T11:09:47;8.30;99.90
19654;DHT22;9975;48.046;7.804;2022-11-20T11:12:14;8.30;99.90
19654;DHT22;9975;48.046;7.804;2022-11-20T11:17:29;8.90;99.90
19654;DHT22;9975;48.046;7.804;2022-11-20T11:20:15;9.00;99.90
19654;DHT22;9975;48.046;7.804;2022-11-20T11:22:49;9.30;99.90
19654;DHT22;9975;48.046;7.804;2022-11-20T11:27:53;10.10;99.90
19654;DHT22;9975;48.046;7.804;2022-11-20T11:30:21;10.50;99.90
19654;DHT22;9975;48.046;7.804;2022-11-20T11:32:48;10.70;99.90
19654;DHT22;9975;48.046;7.804;2022-11-20T11:35:23;10.90;99.90
19654;DHT22;9975;48.046;7.804;2022-11-20T11:37:50;11.00;99.90
19654;DHT22;9975;48.046;7.804;2022-11-20T11:40:18;11.20;99.90
19654;DHT22;9975;48.046;7.804;2022-11-20T11:42:49;11.20;99.90
19654;DHT22;9975;48.046;7.804;2022-11-20T11:45:16;11.20;99.90
19654;DHT22;9975;48.046;7.804;2022-11-20T11:47:48;11.30;99.90
19654;DHT22;9975;48.046;7.804;2022-11-20T11:50:27;11.40;99.90
19654;DHT22;9975;48.046;7.804;2022-11-20T11:53:13;11.50;99.90
19654;DHT22;9975;48.046;7.804;2022-11-20T11:56:02;11.50;99.90
19654;DHT22;9975;48.046;7.804;2022-11-20T11:58:43;11.60;99.90
19654;DHT22;9975;48.046;7.804;2022-11-20T12:06:51;10.90;99.90
19654;DHT22;9975;48.046;7.804;2022-11-20T12:09:18;10.80;99.90
19654;DHT22;9975;48.046;7.804;2022-11-20T12:11:56;10.60;99.90
19654;DHT22;9975;48.046;7.804;2022-11-20T12:14:34;10.40;99.90
19654;DHT22;9975;48.046;7.804;2022-11-20T12:17:02;10.60;99.90
19654;DHT22;9975;48.046;7.804;2022-11-20T12:19:30;10.90;99.90
19654;DHT22;9975;48.046;7.804;2022-11-20T12:28:02;11.10;98.60
19654;DHT22;9975;48.046;7.804;2022-11-20T12:30:33;11.30;97.90
19654;DHT22;9975;48.046;7.804;2022-11-20T12:43:58;10.60;97.90
19654;DHT22;9975;48.046;7.804;2022-11-20T12:50:02;10.60;96.90
19654;DHT22;9975;48.046;7.804;2022-11-20T12:52:53;11.30;96.70
19654;DHT22;9975;48.046;7.804;2022-11-20T12:56:03;11.40;97.40
19654;DHT22;9975;48.046;7.804;2022-11-20T13:04:19;10.90;96.60
19654;DHT22;9975;48.046;7.804;2022-11-20T13:06:49;10.70;96.70
19654;DHT22;9975;48.046;7.804;2022-11-20T13:09:18;10.80;97.20
19654;DHT22;9975;48.046;7.804;2022-11-20T13:11:46;10.80;97.00
19654;DHT22;9975;48.046;7.804;2022-11-20T13:14:52;10.70;97.10
19654;DHT22;9975;48.046;7.804;2022-11-20T13:17:28;10.80;97.10
19654;DHT22;9975;48.046;7.804;2022-11-20T13:19:57;11.20;96.20
19654;DHT22;9975;48.046;7.804;2022-11-20T13:22:44;11.10;95.00
19654;DHT22;9975;48.046;7.804;2022-11-20T13:25:30;10.90;95.40
19654;DHT22;9975;48.046;7.804;2022-11-20T13:27:58;11.10;95.40
19654;DHT22;9975;48.046;7.804;2022-11-20T13:30:26;11.20;95.10
19654;DHT22;9975;48.046;7.804;2022-11-20T13:38:48;11.50;92.40
19654;DHT22;9975;48.046;7.804;2022-11-20T13:41:34;11.40;92.30
19654;DHT22;9975;48.046;7.804;2022-11-20T13:44:10;11.40;93.30
19654;DHT22;9975;48.046;7.804;2022-11-20T13:46:41;11.40;93.10
19654;DHT22;9975;48.046;7.804;2022-11-20T13:49:31;11.20;93.80
19654;DHT22;9975;48.046;7.804;2022-11-20T13:57:56;11.00;94.40
19654;DHT22;9975;48.046;7.804;2022-11-20T14:00:25;11.30;94.60
19654;DHT22;9975;48.046;7.804;2022-11-20T14:05:35;11.90;93.40
19654;DHT22;9975;48.046;7.804;2022-11-20T14:11:28;11.90;93.60
19654;DHT22;9975;48.046;7.804;2022-11-20T14:14:03;11.20;92.90
19654;DHT22;9975;48.046;7.804;2022-11-20T14:16:34;10.80;93.20
19654;DHT22;9975;48.046;7.804;2022-11-20T14:21:48;10.60;92.80
19654;DHT22;9975;48.046;7.804;2022-11-20T14:24:22;10.50;93.40
19654;DHT22;9975;48.046;7.804;2022-11-20T14:26:51;10.40;93.60
19654;DHT22;9975;48.046;7.804;2022-11-20T14:29:20;9.90;94.40
19654;DHT22;9975;48.046;7.804;2022-11-20T14:31:48;9.70;94.90
19654;DHT22;9975;48.046;7.804;2022-11-20T14:34:22;9.50;95.40
19654;DHT22;9975;48.046;7.804;2022-11-20T14:37:39;9.50;95.70
19654;DHT22;9975;48.046;7.804;2022-11-20T14:39:54;9.50;96.00
19654;DHT22;9975;48.046;7.804;2022-11-20T14:42:21;9.30;96.50
19654;DHT22;9975;48.046;7.804;2022-11-20T14:44:48;9.30;96.80
19654;DHT22;9975;48.046;7.804;2022-11-20T14:47:24;9.30;97.40
19654;DHT22;9975;48.046;7.804;2022-11-20T14:50:00;9.30;97.80
19654;DHT22;9975;48.046;7.804;2022-11-20T14:52:27;9.30;97.90
19654;DHT22;9975;48.046;7.804;2022-11-20T14:54:57;9.20;98.20
19654;DHT22;9975;48.046;7.804;2022-11-20T14:57:27;9.10;98.40
19654;DHT22;9975;48.046;7.804;2022-11-20T15:02:46;8.90;99.30
19654;DHT22;9975;48.046;7.804;2022-11-20T15:05:13;8.90;99.60
19654;DHT22;9975;48.046;7.804;2022-11-20T15:07:45;8.90;99.80
19654;DHT22;9975;48.046;7.804;2022-11-20T15:10:12;8.80;99.90
19654;DHT22;9975;48.046;7.804;2022-11-20T15:13:03;8.70;99.90
19654;DHT22;9975;48.046;7.804;2022-11-20T15:15:40;8.70;99.90
19654;DHT22;9975;48.046;7.804;2022-11-20T15:18:15;8.60;99.90
19654;DHT22;9975;48.046;7.804;2022-11-20T15:20:41;8.60;99.90
19654;DHT22;9975;48.046;7.804;2022-11-20T15:23:15;8.70;99.90
19654;DHT22;9975;48.046;7.804;2022-11-20T15:25:45;8.70;99.90
19654;DHT22;9975;48.046;7.804;2022-11-20T15:28:21;8.60;99.90
19654;DHT22;9975;48.046;7.804;2022-11-20T15:30:48;8.50;99.90
19654;DHT22;9975;48.046;7.804;2022-11-20T15:33:15;8.50;99.90
19654;DHT22;9975;48.046;7.804;2022-11-20T15:35:41;8.60;99.90
19654;DHT22;9975;48.046;7.804;2022-11-20T15:38:07;8.50;99.90
19654;DHT22;9975;48.046;7.804;2022-11-20T15:40:32;8.50;99.90
19654;DHT22;9975;48.046;7.804;2022-11-20T15:42:58;8.50;99.90
19654;DHT22;9975;48.046;7.804;2022-11-20T15:45:41;8.60;99.90
19654;DHT22;9975;48.046;7.804;2022-11-20T15:48:35;8.50;99.90
19654;DHT22;9975;48.046;7.804;2022-11-20T15:53:41;8.50;99.90
19654;DHT22;9975;48.046;7.804;2022-11-20T15:56:14;8.50;99.90
19654;DHT22;9975;48.046;7.804;2022-11-20T15:58:40;8.40;99.90
19654;DHT22;9975;48.046;7.804;2022-11-20T16:01:13;8.30;99.90
19654;DHT22;9975;48.046;7.804;2022-11-20T16:03:40;8.30;99.90
19654;DHT22;9975;48.046;7.804;2022-11-20T16:06:06;8.30;99.90
19654;DHT22;9975;48.046;7.804;2022-11-20T16:08:31;8.20;99.90
19654;DHT22;9975;48.046;7.804;2022-11-20T16:10:57;8.30;99.90
19654;DHT22;9975;48.046;7.804;2022-11-20T16:13:22;8.20;99.90
19654;DHT22;9975;48.046;7.804;2022-11-20T16:16:12;8.20;99.90
19654;DHT22;9975;48.046;7.804;2022-11-20T16:18:39;8.30;99.90
19654;DHT22;9975;48.046;7.804;2022-11-20T16:21:11;8.20;99.90
19654;DHT22;9975;48.046;7.804;2022-11-20T16:23:37;8.10;99.90
19654;DHT22;9975;48.046;7.804;2022-11-20T16:26:10;8.10;99.90
19654;DHT22;9975;48.046;7.804;2022-11-20T16:28:35;8.10;99.90
19654;DHT22;9975;48.046;7.804;2022-11-20T16:31:11;8.10;99.90
19654;DHT22;9975;48.046;7.804;2022-11-20T16:33:38;8.10;99.90
19654;DHT22;9975;48.046;7.804;2022-11-20T16:36:11;8.10;99.90
19654;DHT22;9975;48.046;7.804;2022-11-20T16:38:37;8.10;99.90
19654;DHT22;9975;48.046;7.804;2022-11-20T16:41:03;8.10;99.90
19654;DHT22;9975;48.046;7.804;2022-11-20T16:43:30;8.10;99.90
19654;DHT22;9975;48.046;7.804;2022-11-20T16:45:55;8.10;99.90
19654;DHT22;9975;48.046;7.804;2022-11-20T16:48:21;8.10;99.90
19654;DHT22;9975;48.046;7.804;2022-11-20T16:50:52;8.10;99.90
19654;DHT22;9975;48.046;7.804;2022-11-20T16:53:19;8.00;99.90
19654;DHT22;9975;48.046;7.804;2022-11-20T16:55:45;8.00;99.90
19654;DHT22;9975;48.046;7.804;2022-11-20T16:58:11;8.00;99.90
19654;DHT22;9975;48.046;7.804;2022-11-20T17:00:39;8.00;99.90
19654;DHT22;9975;48.046;7.804;2022-11-20T17:03:05;8.00;99.90
19654;DHT22;9975;48.046;7.804;2022-11-20T17:05:44;8.00;99.90
19654;DHT22;9975;48.046;7.804;2022-11-20T17:08:09;8.10;99.90
19654;DHT22;9975;48.046;7.804;2022-11-20T17:10:35;8.10;99.90
19654;DHT22;9975;48.046;7.804;2022-11-20T17:13:02;8.10;99.90
19654;DHT22;9975;48.046;7.804;2022-11-20T17:15:29;8.10;99.90
19654;DHT22;9975;48.046;7.804;2022-11-20T17:17:55;8.00;99.90
19654;DHT22;9975;48.046;7.804;2022-11-20T17:20:21;8.00;99.90
19654;DHT22;9975;48.046;7.804;2022-11-20T17:22:46;8.00;99.90
19654;DHT22;9975;48.046;7.804;2022-11-20T17:25:12;8.00;99.90
19654;DHT22;9975;48.046;7.804;2022-11-20T17:27:37;8.00;99.90
19654;DHT22;9975;48.046;7.804;2022-11-20T17:30:03;8.00;99.90
19654;DHT22;9975;48.046;7.804;2022-11-20T17:32:29;8.00;99.90
19654;DHT22;9975;48.046;7.804;2022-11-20T17:35:00;7.90;99.90
19654;DHT22;9975;48.046;7.804;2022-11-20T17:37:26;7.90;99.90
19654;DHT22;9975;48.046;7.804;2022-11-20T17:39:51;8.00;99.90
19654;DHT22;9975;48.046;7.804;2022-11-20T17:42:18;7.90;99.90
19654;DHT22;9975;48.046;7.804;2022-11-20T17:45:01;8.00;99.90
19654;DHT22;9975;48.046;7.804;2022-11-20T17:47:27;7.90;99.90
19654;DHT22;9975;48.046;7.804;2022-11-20T17:49:52;7.90;99.90
19654;DHT22;9975;48.046;7.804;2022-11-20T17:52:20;8.00;99.90
19654;DHT22;9975;48.046;7.804;2022-11-20T17:54:46;7.80;99.90
19654;DHT22;9975;48.046;7.804;2022-11-20T17:57:12;7.50;99.90
19654;DHT22;9975;48.046;7.804;2022-11-20T18:02:22;7.30;99.90
19654;DHT22;9975;48.046;7.804;2022-11-20T18:04:48;7.00;99.90
19654;DHT22;9975;48.046;7.804;2022-11-20T18:07:14;7.00;99.90
19654;DHT22;9975;48.046;7.804;2022-11-20T18:09:40;6.70;99.90
19654;DHT22;9975;48.046;7.804;2022-11-20T18:12:05;6.50;99.90
19654;DHT22;9975;48.046;7.804;2022-11-20T18:14:31;6.50;99.90
19654;DHT22;9975;48.046;7.804;2022-11-20T18:17:09;6.30;99.90
19654;DHT22;9975;48.046;7.804;2022-11-20T18:19:43;6.20;99.90
19654;DHT22;9975;48.046;7.804;2022-11-20T18:22:11;6.00;99.90
19654;DHT22;9975;48.046;7.804;2022-11-20T18:24:37;6.00;99.90
19654;DHT22;9975;48.046;7.804;2022-11-20T18:27:06;6.00;99.90
19654;DHT22;9975;48.046;7.804;2022-11-20T18:29:32;6.10;99.90
19654;DHT22;9975;48.046;7.804;2022-11-20T18:31:58;6.00;99.90
19654;DHT22;9975;48.046;7.804;2022-11-20T18:34:24;5.90;99.90
19654;DHT22;9975;48.046;7.804;2022-11-20T18:36:50;6.00;99.90
19654;DHT22;9975;48.046;7.804;2022-11-20T18:39:16;6.60;99.90
19654;DHT22;9975;48.046;7.804;2022-11-20T18:41:43;6.00;99.90
19654;DHT22;9975;48.046;7.804;2022-11-20T18:44:29;5.80;99.90
19654;DHT22;9975;48.046;7.804;2022-11-20T18:47:16;5.90;99.90
19654;DHT22;9975;48.046;7.804;2022-11-20T18:49:42;6.00;99.90
19654;DHT22;9975;48.046;7.804;2022-11-20T18:52:11;6.00;99.90
19654;DHT22;9975;48.046;7.804;2022-11-20T18:54:42;5.90;99.90
19654;DHT22;9975;48.046;7.804;2022-11-20T18:57:08;6.00;99.90
19654;DHT22;9975;48.046;7.804;2022-11-20T18:59:38;6.00;99.90
19654;DHT22;9975;48.046;7.804;2022-11-20T19:02:04;6.00;99.90
19654;DHT22;9975;48.046;7.804;2022-11-20T19:04:30;5.90;99.90
19654;DHT22;9975;48.046;7.804;2022-11-20T19:06:57;5.90;99.90
19654;DHT22;9975;48.046;7.804;2022-11-20T19:09:22;6.00;99.90
19654;DHT22;9975;48.046;7.804;2022-11-20T19:11:48;6.00;99.90
19654;DHT22;9975;48.046;7.804;2022-11-20T19:14:14;5.90;99.90
19654;DHT22;9975;48.046;7.804;2022-11-20T19:16:40;5.90;99.90
19654;DHT22;9975;48.046;7.804;2022-11-20T19:19:07;6.10;99.90
19654;DHT22;9975;48.046;7.804;2022-11-20T19:21:33;5.90;99.90
19654;DHT22;9975;48.046;7.804;2022-11-20T19:24:01;5.90;99.90
19654;DHT22;9975;48.046;7.804;2022-11-20T19:26:27;5.90;99.90
19654;DHT22;9975;48.046;7.804;2022-11-20T19:28:53;6.00;99.90
19654;DHT22;9975;48.046;7.804;2022-11-20T19:31:21;5.80;99.90
19654;DHT22;9975;48.046;7.804;2022-11-20T19:33:51;5.90;99.90
19654;DHT22;9975;48.046;7.804;2022-11-20T19:36:19;5.90;99.90
19654;DHT22;9975;48.046;7.804;2022-11-20T19:38:47;5.90;99.90
19654;DHT22;9975;48.046;7.804;2022-11-20T19:41:13;5.80;99.90
19654;DHT22;9975;48.046;7.804;2022-11-20T19:43:39;5.90;99.90
19654;DHT22;9975;48.046;7.804;2022-11-20T19:46:05;5.90;99.90
19654;DHT22;9975;48.046;7.804;2022-11-20T19:48:32;5.80;99.90
19654;DHT22;9975;48.046;7.804;2022-11-20T19:51:16;5.80;99.90
19654;DHT22;9975;48.046;7.804;2022-11-20T19:53:42;5.70;99.90
19654;DHT22;9975;48.046;7.804;2022-11-20T19:56:09;5.70;99.90
19654;DHT22;9975;48.046;7.804;2022-11-20T19:58:36;5.70;99.90
19654;DHT22;9975;48.046;7.804;2022-11-20T20:03:39;5.70;99.90